sensor_id;sensor_type;location;lat;lon;timestamp;temperature;humidity
9125;DHT22;4597;48.730;9.114;2022-12-10T00:00:34;2.20;99.90
9125;DHT22;4597;48.730;9.114;2022-12-10T00:03:00;2.20;99.90
9125;DHT22;4597;48.730;9.114;2022-12-10T00:05:26;2.10;99.90
9125;DHT22;4597;48.730;9.114;2022-12-10T00:07:51;2.10;99.90
9125;DHT22;4597;48.730;9.114;2022-12-10T00:10:17;2.10;99.90
9125;DHT22;4597;48.730;9.114;2022-12-10T00:12:42;2.20;99.90
9125;DHT22;4597;48.730;9.114;2022-12-10T00:15:08;2.10;99.90
9125;DHT22;4597;48.730;9.114;2022-12-10T00:17:34;2.10;99.90
9125;DHT22;4597;48.730;9.114;2022-12-10T00:19:59;2.10;99.90
9125;DHT22;4597;48.730;9.114;2022-12-10T00:22:25;2.10;99.90
9125;DHT22;4597;48.730;9.114;2022-12-10T00:24:50;2.10;99.90
9125;DHT22;4597;48.730;9.114;2022-12-10T00:27:16;2.10;99.90
9125;DHT22;4597;48.730;9.114;2022-12-10T00:29:42;2.10;99.90
9125;DHT22;4597;48.730;9.114;2022-12-10T00:32:08;2.10;99.90
9125;DHT22;4597;48.730;9.114;2022-12-10T00:34:34;2.10;99.90
9125;DHT22;4597;48.730;9.114;2022-12-10T00:36:59;2.20;99.90
9125;DHT22;4597;48.730;9.114;2022-12-10T00:39:27;2.20;99.90
9125;DHT22;4597;48.730;9.114;2022-12-10T00:41:53;2.20;99.90
9125;DHT22;4597;48.730;9.114;2022-12-10T00:44:18;2.20;99.90
9125;DHT22;4597;48.730;9.114;2022-12-10T00:46:44;2.20;99.90
9125;DHT22;4597;48.730;9.114;2022-12-10T00:49:10;2.10;99.90
9125;DHT22;4597;48.730;9.114;2022-12-10T00:51:36;2.00;99.90
9125;DHT22;4597;48.730;9.114;2022-12-10T00:54:02;2.10;99.90
9125;DHT22;4597;48.730;9.114;2022-12-10T00:56:30;2.10;99.90
9125;DHT22;4597;48.730;9.114;2022-12-10T00:58:56;2.00;99.90
9125;DHT22;4597;48.730;9.114;2022-12-10T01:01:31;2.00;99.90
9125;DHT22;4597;48.730;9.114;2022-12-10T01:04:01;2.00;99.90
9125;DHT22;4597;48.730;9.114;2022-12-10T01:06:29;2.00;99.90
9125;DHT22;4597;48.730;9.114;2022-12-10T01:08:57;2.00;99.90
9125;DHT22;4597;48.730;9.114;2022-12-10T01:11:29;2.00;99.90
9125;DHT22;4597;48.730;9.114;2022-12-10T01:13:55;2.00;99.90
9125;DHT22;4597;48.730;9.114;2022-12-10T01:16:22;2.00;99.90
9125;DHT22;4597;48.730;9.114;2022-12-10T01:18:48;2.10;99.90
9125;DHT22;4597;48.730;9.114;2022-12-10T01:21:16;2.00;99.90
9125;DHT22;4597;48.730;9.114;2022-12-10T01:23:44;2.00;99.90
9125;DHT22;4597;48.730;9.114;2022-12-10T01:26:13;2.00;99.90
9125;DHT22;4597;48.730;9.114;2022-12-10T01:28:40;2.10;99.90
9125;DHT22;4597;48.730;9.114;2022-12-10T01:31:11;2.10;99.90
9125;DHT22;4597;48.730;9.114;2022-12-10T01:33:37;2.10;99.90
9125;DHT22;4597;48.730;9.114;2022-12-10T01:36:05;2.10;99.90
9125;DHT22;4597;48.730;9.114;2022-12-10T01:38:30;2.10;99.90
9125;DHT22;4597;48.730;9.114;2022-12-10T01:40:56;2.10;99.90
9125;DHT22;4597;48.730;9.114;2022-12-10T01:43:22;2.10;99.90
9125;DHT22;4597;48.730;9.114;2022-12-10T01:45:47;2.00;99.90
9125;DHT22;4597;48.730;9.114;2022-12-10T01:48:13;2.00;99.90
9125;DHT22;4597;48.730;9.114;2022-12-10T01:50:39;2.00;99.90
9125;DHT22;4597;48.730;9.114;2022-12-10T01:53:04;2.00;99.90
9125;DHT22;4597;48.730;9.114;2022-12-10T01:55:48;2.00;99.90
9125;DHT22;4597;48.730;9.114;2022-12-10T01:58:17;2.00;99.90
9125;DHT22;4597;48.730;9.114;2022-12-10T02:00:52;2.00;99.90
9125;DHT22;4597;48.730;9.114;2022-12-10T02:03:34;2.00;99.90
9125;DHT22;4597;48.730;9.114;2022-12-10T02:11:29;2.00;99.90
9125;DHT22;4597;48.730;9.114;2022-12-10T02:14:20;2.10;99.90
9125;DHT22;4597;48.730;9.114;2022-12-10T02:16:57;2.10;99.90
9125;DHT22;4597;48.730;9.114;2022-12-10T02:19:38;2.00;99.90
9125;DHT22;4597;48.730;9.114;2022-12-10T02:22:05;2.00;99.90
9125;DHT22;4597;48.730;9.114;2022-12-10T02:24:35;2.00;99.90
9125;DHT22;4597;48.730;9.114;2022-12-10T02:27:20;2.00;99.90
9125;DHT22;4597;48.730;9.114;2022-12-10T02:29:48;2.00;99.90
9125;DHT22;4597;48.730;9.114;2022-12-10T02:32:19;2.00;99.90
9125;DHT22;4597;48.730;9.114;2022-12-10T02:34:54;2.00;99.90
9125;DHT22;4597;48.730;9.114;2022-12-10T02:37:29;1.90;99.90
9125;DHT22;4597;48.730;9.114;2022-12-10T02:39:57;1.90;99.90
9125;DHT22;4597;48.730;9.114;2022-12-10T02:42:25;1.80;99.90
9125;DHT22;4597;48.730;9.114;2022-12-10T02:44:52;1.80;99.90
9125;DHT22;4597;48.730;9.114;2022-12-10T02:47:19;1.80;99.90
9125;DHT22;4597;48.730;9.114;2022-12-10T02:49:47;1.80;99.90
9125;DHT22;4597;48.730;9.114;2022-12-10T02:52:18;1.90;99.90
9125;DHT22;4597;48.730;9.114;2022-12-10T02:54:46;1.80;99.90
9125;DHT22;4597;48.730;9.114;2022-12-10T03:00:14;1.80;99.90
9125;DHT22;4597;48.730;9.114;2022-12-10T03:03:12;1.80;99.90
9125;DHT22;4597;48.730;9.114;2022-12-10T03:05:59;1.80;99.90
9125;DHT22;4597;48.730;9.114;2022-12-10T03:08:38;1.70;99.90
9125;DHT22;4597;48.730;9.114;2022-12-10T03:11:15;1.70;99.90
9125;DHT22;4597;48.730;9.114;2022-12-10T03:16:19;1.60;99.90
9125;DHT22;4597;48.730;9.114;2022-12-10T03:18:49;1.50;99.90
9125;DHT22;4597;48.730;9.114;2022-12-10T03:21:16;1.50;99.90
9125;DHT22;4597;48.730;9.114;2022-12-10T03:23:43;1.50;99.90
9125;DHT22;4597;48.730;9.114;2022-12-10T03:26:10;1.40;99.90
9125;DHT22;4597;48.730;9.114;2022-12-10T03:28:40;1.40;99.90
9125;DHT22;4597;48.730;9.114;2022-12-10T03:31:08;1.40;99.90
9125;DHT22;4597;48.730;9.114;2022-12-10T03:33:35;1.40;99.90
9125;DHT22;4597;48.730;9.114;2022-12-10T03:36:01;1.40;99.90
9125;DHT22;4597;48.730;9.114;2022-12-10T03:38:27;1.40;99.90
9125;DHT22;4597;48.730;9.114;2022-12-10T03:40:52;1.40;99.90
9125;DHT22;4597;48.730;9.114;2022-12-10T03:43:18;1.40;99.90
9125;DHT22;4597;48.730;9.114;2022-12-10T03:45:43;1.40;99.90
9125;DHT22;4597;48.730;9.114;2022-12-10T03:48:09;1.40;99.90
9125;DHT22;4597;48.730;9.114;2022-12-10T03:50:34;1.30;99.90
9125;DHT22;4597;48.730;9.114;2022-12-10T03:53:00;1.30;99.90
9125;DHT22;4597;48.730;9.114;2022-12-10T03:55:25;1.30;99.90
9125;DHT22;4597;48.730;9.114;2022-12-10T03:57:51;1.30;99.90
9125;DHT22;4597;48.730;9.114;2022-12-10T04:00:17;1.40;99.90
9125;DHT22;4597;48.730;9.114;2022-12-10T04:02:42;1.40;99.90
9125;DHT22;4597;48.730;9.114;2022-12-10T04:05:08;1.40;99.90
9125;DHT22;4597;48.730;9.114;2022-12-10T04:07:34;1.40;99.90
9125;DHT22;4597;48.730;9.114;2022-12-10T04:09:59;1.50;99.90
9125;DHT22;4597;48.730;9.114;2022-12-10T04:12:25;1.40;99.90
9125;DHT22;4597;48.730;9.114;2022-12-10T04:14:50;1.40;99.90
9125;DHT22;4597;48.730;9.114;2022-12-10T04:17:35;1.50;99.90
9125;DHT22;4597;48.730;9.114;2022-12-10T04:20:01;1.50;99.90
9125;DHT22;4597;48.730;9.114;2022-12-10T04:22:26;1.50;99.90
9125;DHT22;4597;48.730;9.114;2022-12-10T04:25:12;1.50;99.90
9125;DHT22;4597;48.730;9.114;2022-12-10T04:27:56;1.50;99.90
9125;DHT22;4597;48.730;9.114;2022-12-10T04:30:22;1.50;99.90
9125;DHT22;4597;48.730;9.114;2022-12-10T04:32:47;1.50;99.90
9125;DHT22;4597;48.730;9.114;2022-12-10T04:35:13;1.50;99.90
9125;DHT22;4597;48.730;9.114;2022-12-10T04:37:38;1.50;99.90
9125;DHT22;4597;48.730;9.114;2022-12-10T04:40:05;1.50;99.90
9125;DHT22;4597;48.730;9.114;2022-12-10T04:42:31;1.50;99.90
9125;DHT22;4597;48.730;9.114;2022-12-10T04:44:56;1.50;99.90
9125;DHT22;4597;48.730;9.114;2022-12-10T04:47:22;1.50;99.90
9125;DHT22;4597;48.730;9.114;2022-12-10T04:49:47;1.50;99.90
9125;DHT22;4597;48.730;9.114;2022-12-10T04:52:14;1.50;99.90
9125;DHT22;4597;48.730;9.114;2022-12-10T04:54:41;1.50;99.90
9125;DHT22;4597;48.730;9.114;2022-12-10T04:57:07;1.50;99.90
9125;DHT22;4597;48.730;9.114;2022-12-10T04:59:34;1.50;99.90
9125;DHT22;4597;48.730;9.114;2022-12-10T05:02:00;1.50;99.90
9125;DHT22;4597;48.730;9.114;2022-12-10T05:04:25;1.50;99.90
9125;DHT22;4597;48.730;9.114;2022-12-10T05:06:51;1.60;99.90
9125;DHT22;4597;48.730;9.114;2022-12-10T05:09:17;1.60;99.90
9125;DHT22;4597;48.730;9.114;2022-12-10T05:11:43;1.50;99.90
9125;DHT22;4597;48.730;9.114;2022-12-10T05:14:13;1.50;99.90
9125;DHT22;4597;48.730;9.114;2022-12-10T05:16:40;1.50;99.90
9125;DHT22;4597;48.730;9.114;2022-12-10T05:19:05;1.50;99.90
9125;DHT22;4597;48.730;9.114;2022-12-10T05:21:31;1.40;99.90
9125;DHT22;4597;48.730;9.114;2022-12-10T05:24:26;1.40;99.90
9125;DHT22;4597;48.730;9.114;2022-12-10T05:26:51;1.30;99.90
9125;DHT22;4597;48.730;9.114;2022-12-10T05:29:17;1.30;99.90
9125;DHT22;4597;48.730;9.114;2022-12-10T05:31:43;1.20;99.90
9125;DHT22;4597;48.730;9.114;2022-12-10T05:34:10;1.30;99.90
9125;DHT22;4597;48.730;9.114;2022-12-10T05:36:36;1.30;99.90
9125;DHT22;4597;48.730;9.114;2022-12-10T05:39:01;1.40;99.90
9125;DHT22;4597;48.730;9.114;2022-12-10T05:41:33;1.40;99.90
9125;DHT22;4597;48.730;9.114;2022-12-10T05:43:59;1.40;99.90
9125;DHT22;4597;48.730;9.114;2022-12-10T05:46:27;1.40;99.90
9125;DHT22;4597;48.730;9.114;2022-12-10T05:48:54;1.40;99.90
9125;DHT22;4597;48.730;9.114;2022-12-10T05:51:21;1.40;99.90
9125;DHT22;4597;48.730;9.114;2022-12-10T05:53:47;1.50;99.90
9125;DHT22;4597;48.730;9.114;2022-12-10T05:56:16;1.40;99.90
9125;DHT22;4597;48.730;9.114;2022-12-10T05:58:45;1.40;99.90
9125;DHT22;4597;48.730;9.114;2022-12-10T06:01:19;1.30;99.90
9125;DHT22;4597;48.730;9.114;2022-12-10T06:03:45;1.40;99.90
9125;DHT22;4597;48.730;9.114;2022-12-10T06:06:11;1.40;99.90
9125;DHT22;4597;48.730;9.114;2022-12-10T06:08:37;1.40;99.90
9125;DHT22;4597;48.730;9.114;2022-12-10T06:11:09;1.40;99.90
9125;DHT22;4597;48.730;9.114;2022-12-10T06:13:35;1.40;99.90
9125;DHT22;4597;48.730;9.114;2022-12-10T06:16:10;1.40;99.90
9125;DHT22;4597;48.730;9.114;2022-12-10T06:18:36;1.40;99.90
9125;DHT22;4597;48.730;9.114;2022-12-10T06:21:06;1.40;99.90
9125;DHT22;4597;48.730;9.114;2022-12-10T06:23:34;1.40;99.90
9125;DHT22;4597;48.730;9.114;2022-12-10T06:26:13;1.40;99.90
9125;DHT22;4597;48.730;9.114;2022-12-10T06:28:39;1.40;99.90
9125;DHT22;4597;48.730;9.114;2022-12-10T06:31:05;1.50;99.90
9125;DHT22;4597;48.730;9.114;2022-12-10T06:33:31;1.50;99.90
9125;DHT22;4597;48.730;9.114;2022-12-10T06:35:57;1.50;99.90
9125;DHT22;4597;48.730;9.114;2022-12-10T06:38:22;1.50;99.90
9125;DHT22;4597;48.730;9.114;2022-12-10T06:40:48;1.50;99.90
9125;DHT22;4597;48.730;9.114;2022-12-10T06:43:13;1.50;99.90
9125;DHT22;4597;48.730;9.114;2022-12-10T06:45:40;1.50;99.90
9125;DHT22;4597;48.730;9.114;2022-12-10T06:48:06;1.50;99.90
9125;DHT22;4597;48.730;9.114;2022-12-10T06:50:32;1.60;99.90
9125;DHT22;4597;48.730;9.114;2022-12-10T06:52:57;1.50;99.90
9125;DHT22;4597;48.730;9.114;2022-12-10T06:55:23;1.50;99.90
9125;DHT22;4597;48.730;9.114;2022-12-10T06:57:52;1.50;99.90
9125;DHT22;4597;48.730;9.114;2022-12-10T07:00:18;1.50;99.90
9125;DHT22;4597;48.730;9.114;2022-12-10T07:02:44;1.50;99.90
9125;DHT22;4597;48.730;9.114;2022-12-10T07:05:09;1.50;99.90
9125;DHT22;4597;48.730;9.114;2022-12-10T07:07:35;1.50;99.90
9125;DHT22;4597;48.730;9.114;2022-12-10T07:10:01;1.50;99.90
9125;DHT22;4597;48.730;9.114;2022-12-10T07:12:27;1.50;99.90
9125;DHT22;4597;48.730;9.114;2022-12-10T07:14:52;1.50;99.90
9125;DHT22;4597;48.730;9.114;2022-12-10T07:17:18;1.50;99.90
9125;DHT22;4597;48.730;9.114;2022-12-10T07:19:43;1.50;99.90
9125;DHT22;4597;48.730;9.114;2022-12-10T07:22:09;1.50;99.90
9125;DHT22;4597;48.730;9.114;2022-12-10T07:24:35;1.50;99.90
9125;DHT22;4597;48.730;9.114;2022-12-10T07:27:03;1.50;99.90
9125;DHT22;4597;48.730;9.114;2022-12-10T07:29:29;1.50;99.90
9125;DHT22;4597;48.730;9.114;2022-12-10T07:31:55;1.50;99.90
9125;DHT22;4597;48.730;9.114;2022-12-10T07:34:20;1.50;99.90
9125;DHT22;4597;48.730;9.114;2022-12-10T07:36:46;1.50;99.90
9125;DHT22;4597;48.730;9.114;2022-12-10T07:39:13;1.50;99.90
9125;DHT22;4597;48.730;9.114;2022-12-10T07:41:52;1.60;99.90
9125;DHT22;4597;48.730;9.114;2022-12-10T07:44:19;1.50;99.90
9125;DHT22;4597;48.730;9.114;2022-12-10T07:46:48;1.60;99.90
9125;DHT22;4597;48.730;9.114;2022-12-10T07:49:14;1.50;99.90
9125;DHT22;4597;48.730;9.114;2022-12-10T07:51:44;1.50;99.90
9125;DHT22;4597;48.730;9.114;2022-12-10T07:54:09;1.50;99.90
9125;DHT22;4597;48.730;9.114;2022-12-10T07:56:35;1.50;99.90
9125;DHT22;4597;48.730;9.114;2022-12-10T07:59:00;1.50;99.90
9125;DHT22;4597;48.730;9.114;2022-12-10T08:01:26;1.60;99.90
9125;DHT22;4597;48.730;9.114;2022-12-10T08:03:53;1.60;99.90
9125;DHT22;4597;48.730;9.114;2022-12-10T08:06:21;1.60;99.90
9125;DHT22;4597;48.730;9.114;2022-12-10T08:08:47;1.70;99.90
9125;DHT22;4597;48.730;9.114;2022-12-10T08:11:14;1.90;99.90
9125;DHT22;4597;48.730;9.114;2022-12-10T08:13:41;1.80;99.90
9125;DHT22;4597;48.730;9.114;2022-12-10T08:16:18;1.70;99.90
9125;DHT22;4597;48.730;9.114;2022-12-10T08:18:44;1.80;99.90
9125;DHT22;4597;48.730;9.114;2022-12-10T08:21:15;1.70;99.90
9125;DHT22;4597;48.730;9.114;2022-12-10T08:23:41;1.70;99.90
9125;DHT22;4597;48.730;9.114;2022-12-10T08:26:12;1.60;99.90
9125;DHT22;4597;48.730;9.114;2022-12-10T08:28:39;1.60;99.90
9125;DHT22;4597;48.730;9.114;2022-12-10T08:31:05;1.70;99.90
9125;DHT22;4597;48.730;9.114;2022-12-10T08:33:36;1.70;99.90
9125;DHT22;4597;48.730;9.114;2022-12-10T08:36:03;1.70;99.90
9125;DHT22;4597;48.730;9.114;2022-12-10T08:38:29;1.70;99.90
9125;DHT22;4597;48.730;9.114;2022-12-10T08:40:54;1.80;99.90
9125;DHT22;4597;48.730;9.114;2022-12-10T08:43:20;1.80;99.90
9125;DHT22;4597;48.730;9.114;2022-12-10T08:45:46;1.80;99.90
9125;DHT22;4597;48.730;9.114;2022-12-10T08:48:12;1.90;99.90
9125;DHT22;4597;48.730;9.114;2022-12-10T08:50:38;1.90;99.90
9125;DHT22;4597;48.730;9.114;2022-12-10T08:53:04;1.90;99.90
9125;DHT22;4597;48.730;9.114;2022-12-10T08:55:29;1.90;99.90
9125;DHT22;4597;48.730;9.114;2022-12-10T08:57:56;2.10;99.90
9125;DHT22;4597;48.730;9.114;2022-12-10T09:00:22;2.00;99.90
9125;DHT22;4597;48.730;9.114;2022-12-10T09:02:48;2.00;99.90
9125;DHT22;4597;48.730;9.114;2022-12-10T09:05:14;2.00;99.90
9125;DHT22;4597;48.730;9.114;2022-12-10T09:07:39;2.00;99.90
9125;DHT22;4597;48.730;9.114;2022-12-10T09:10:05;2.10;99.90
9125;DHT22;4597;48.730;9.114;2022-12-10T09:12:33;2.10;99.90
9125;DHT22;4597;48.730;9.114;2022-12-10T09:14:59;2.20;99.90
9125;DHT22;4597;48.730;9.114;2022-12-10T09:17:25;2.10;99.90
9125;DHT22;4597;48.730;9.114;2022-12-10T09:19:50;2.10;99.90
9125;DHT22;4597;48.730;9.114;2022-12-10T09:22:16;2.00;99.90
9125;DHT22;4597;48.730;9.114;2022-12-10T09:24:41;2.00;99.90
9125;DHT22;4597;48.730;9.114;2022-12-10T09:27:07;2.00;99.90
9125;DHT22;4597;48.730;9.114;2022-12-10T09:29:32;2.00;99.90
9125;DHT22;4597;48.730;9.114;2022-12-10T09:31:58;2.20;99.90
9125;DHT22;4597;48.730;9.114;2022-12-10T09:34:24;2.40;99.90
9125;DHT22;4597;48.730;9.114;2022-12-10T09:36:49;2.30;99.90
9125;DHT22;4597;48.730;9.114;2022-12-10T09:39:15;2.40;99.90
9125;DHT22;4597;48.730;9.114;2022-12-10T09:46:57;2.60;99.90
9125;DHT22;4597;48.730;9.114;2022-12-10T09:52:06;2.60;99.90
9125;DHT22;4597;48.730;9.114;2022-12-10T09:54:45;2.60;99.90
9125;DHT22;4597;48.730;9.114;2022-12-10T09:58:01;2.60;99.90
9125;DHT22;4597;48.730;9.114;2022-12-10T10:02:56;2.40;99.90
9125;DHT22;4597;48.730;9.114;2022-12-10T10:05:30;2.60;99.90
9125;DHT22;4597;48.730;9.114;2022-12-10T10:08:12;2.70;99.90
9125;DHT22;4597;48.730;9.114;2022-12-10T10:10:40;2.70;99.90
9125;DHT22;4597;48.730;9.114;2022-12-10T10:15:42;2.50;99.90
9125;DHT22;4597;48.730;9.114;2022-12-10T10:21:21;2.70;99.90
9125;DHT22;4597;48.730;9.114;2022-12-10T10:23:47;2.60;99.90
9125;DHT22;4597;48.730;9.114;2022-12-10T10:26:13;2.70;99.90
9125;DHT22;4597;48.730;9.114;2022-12-10T10:28:40;2.80;99.90
9125;DHT22;4597;48.730;9.114;2022-12-10T10:31:24;2.80;99.90
9125;DHT22;4597;48.730;9.114;2022-12-10T10:33:53;2.80;99.90
9125;DHT22;4597;48.730;9.114;2022-12-10T10:36:27;2.70;99.90
9125;DHT22;4597;48.730;9.114;2022-12-10T10:38:54;2.70;99.90
9125;DHT22;4597;48.730;9.114;2022-12-10T10:41:20;2.80;99.90
9125;DHT22;4597;48.730;9.114;2022-12-10T10:43:46;2.80;99.90
9125;DHT22;4597;48.730;9.114;2022-12-10T10:46:17;2.80;99.90
9125;DHT22;4597;48.730;9.114;2022-12-10T10:48:45;2.80;99.90
9125;DHT22;4597;48.730;9.114;2022-12-10T10:53:48;2.90;99.90
9125;DHT22;4597;48.730;9.114;2022-12-10T10:56:41;3.00;99.90
9125;DHT22;4597;48.730;9.114;2022-12-10T10:59:30;3.20;99.90
9125;DHT22;4597;48.730;9.114;2022-12-10T11:07:44;3.10;99.90
9125;DHT22;4597;48.730;9.114;2022-12-10T11:10:22;3.00;99.90
9125;DHT22;4597;48.730;9.114;2022-12-10T11:13:18;3.10;99.90
9125;DHT22;4597;48.730;9.114;2022-12-10T11:15:44;3.10;99.90
9125;DHT22;4597;48.730;9.114;2022-12-10T11:21:17;3.00;99.90
9125;DHT22;4597;48.730;9.114;2022-12-10T11:23:54;3.00;99.90
9125;DHT22;4597;48.730;9.114;2022-12-10T11:26:57;3.00;99.90
9125;DHT22;4597;48.730;9.114;2022-12-10T11:35:24;2.80;99.90
9125;DHT22;4597;48.730;9.114;2022-12-10T11:40:40;2.90;99.90
9125;DHT22;4597;48.730;9.114;2022-12-10T11:43:20;3.00;99.90
9125;DHT22;4597;48.730;9.114;2022-12-10T11:48:55;3.10;99.90
9125;DHT22;4597;48.730;9.114;2022-12-10T11:51:35;3.10;99.90
9125;DHT22;4597;48.730;9.114;2022-12-10T12:00:02;3.20;99.90
9125;DHT22;4597;48.730;9.114;2022-12-10T12:05:36;3.00;99.90
9125;DHT22;4597;48.730;9.114;2022-12-10T12:13:51;3.10;99.90
9125;DHT22;4597;48.730;9.114;2022-12-10T12:16:33;3.10;99.90
9125;DHT22;4597;48.730;9.114;2022-12-10T12:19:05;3.00;99.90
9125;DHT22;4597;48.730;9.114;2022-12-10T12:21:35;3.10;99.90
9125;DHT22;4597;48.730;9.114;2022-12-10T12:24:15;3.10;99.90
9125;DHT22;4597;48.730;9.114;2022-12-10T12:26:52;3.10;99.90
9125;DHT22;4597;48.730;9.114;2022-12-10T12:32:25;3.10;99.90
9125;DHT22;4597;48.730;9.114;2022-12-10T12:35:10;3.10;99.90
9125;DHT22;4597;48.730;9.114;2022-12-10T12:37:54;3.10;99.90
9125;DHT22;4597;48.730;9.114;2022-12-10T12:40:34;3.20;99.90
9125;DHT22;4597;48.730;9.114;2022-12-10T12:43:11;3.20;99.90
9125;DHT22;4597;48.730;9.114;2022-12-10T12:45:49;3.10;99.90
9125;DHT22;4597;48.730;9.114;2022-12-10T12:50:59;3.10;99.90
9125;DHT22;4597;48.730;9.114;2022-12-10T12:53:26;3.10;99.90
9125;DHT22;4597;48.730;9.114;2022-12-10T12:59:03;3.20;99.90
9125;DHT22;4597;48.730;9.114;2022-12-10T13:01:56;3.10;99.90
9125;DHT22;4597;48.730;9.114;2022-12-10T13:04:24;3.00;99.90
9125;DHT22;4597;48.730;9.114;2022-12-10T13:09:47;2.80;99.90
9125;DHT22;4597;48.730;9.114;2022-12-10T13:12:49;2.70;99.90
9125;DHT22;4597;48.730;9.114;2022-12-10T13:23:48;2.70;99.90
9125;DHT22;4597;48.730;9.114;2022-12-10T13:26:28;2.70;99.90
9125;DHT22;4597;48.730;9.114;2022-12-10T13:28:55;2.70;99.90
9125;DHT22;4597;48.730;9.114;2022-12-10T13:31:41;2.60;99.90
9125;DHT22;4597;48.730;9.114;2022-12-10T13:34:37;2.60;99.90
9125;DHT22;4597;48.730;9.114;2022-12-10T13:37:14;2.60;99.90
9125;DHT22;4597;48.730;9.114;2022-12-10T13:39:59;2.60;99.90
9125;DHT22;4597;48.730;9.114;2022-12-10T13:42:32;2.60;99.90
9125;DHT22;4597;48.730;9.114;2022-12-10T13:47:54;2.70;99.90
9125;DHT22;4597;48.730;9.114;2022-12-10T13:50:31;2.70;99.90
9125;DHT22;4597;48.730;9.114;2022-12-10T13:53:16;2.70;99.90
9125;DHT22;4597;48.730;9.114;2022-12-10T13:56:18;2.70;99.90
9125;DHT22;4597;48.730;9.114;2022-12-10T13:59:01;2.70;99.90
9125;DHT22;4597;48.730;9.114;2022-12-10T14:01:40;2.70;99.90
9125;DHT22;4597;48.730;9.114;2022-12-10T14:06:52;2.80;99.90
9125;DHT22;4597;48.730;9.114;2022-12-10T14:09:31;2.80;99.90
9125;DHT22;4597;48.730;9.114;2022-12-10T14:12:01;2.60;99.90
9125;DHT22;4597;48.730;9.114;2022-12-10T14:14:34;2.60;99.90
9125;DHT22;4597;48.730;9.114;2022-12-10T14:17:14;2.60;99.90
9125;DHT22;4597;48.730;9.114;2022-12-10T14:19:42;2.60;99.90
9125;DHT22;4597;48.730;9.114;2022-12-10T14:22:14;2.60;99.90
9125;DHT22;4597;48.730;9.114;2022-12-10T14:24:41;2.60;99.90
9125;DHT22;4597;48.730;9.114;2022-12-10T14:27:19;2.60;99.90
9125;DHT22;4597;48.730;9.114;2022-12-10T14:29:50;2.60;99.90
9125;DHT22;4597;48.730;9.114;2022-12-10T14:32:25;2.60;99.90
9125;DHT22;4597;48.730;9.114;2022-12-10T14:34:55;2.60;99.90
9125;DHT22;4597;48.730;9.114;2022-12-10T14:37:25;2.50;99.90
9125;DHT22;4597;48.730;9.114;2022-12-10T14:39:51;2.50;99.90
9125;DHT22;4597;48.730;9.114;2022-12-10T14:42:17;2.50;99.90
9125;DHT22;4597;48.730;9.114;2022-12-10T14:44:44;2.40;99.90
9125;DHT22;4597;48.730;9.114;2022-12-10T14:47:20;2.60;99.90
9125;DHT22;4597;48.730;9.114;2022-12-10T14:49:48;2.60;99.90
9125;DHT22;4597;48.730;9.114;2022-12-10T14:52:18;2.60;99.90
9125;DHT22;4597;48.730;9.114;2022-12-10T14:54:44;2.60;99.90
9125;DHT22;4597;48.730;9.114;2022-12-10T14:57:34;2.40;99.90
9125;DHT22;4597;48.730;9.114;2022-12-10T15:02:41;2.40;99.90
9125;DHT22;4597;48.730;9.114;2022-12-10T15:05:13;2.40;99.90
9125;DHT22;4597;48.730;9.114;2022-12-10T15:07:40;2.50;99.90
9125;DHT22;4597;48.730;9.114;2022-12-10T15:10:13;2.40;99.90
9125;DHT22;4597;48.730;9.114;2022-12-10T15:12:47;2.40;99.90
9125;DHT22;4597;48.730;9.114;2022-12-10T15:15:33;2.30;99.90
9125;DHT22;4597;48.730;9.114;2022-12-10T15:18:11;2.30;99.90
9125;DHT22;4597;48.730;9.114;2022-12-10T15:20:51;2.20;99.90
9125;DHT22;4597;48.730;9.114;2022-12-10T15:26:10;2.00;99.90
9125;DHT22;4597;48.730;9.114;2022-12-10T15:28:40;2.10;99.90
9125;DHT22;4597;48.730;9.114;2022-12-10T15:34:01;2.10;99.90
9125;DHT22;4597;48.730;9.114;2022-12-10T15:36:43;2.00;99.90
9125;DHT22;4597;48.730;9.114;2022-12-10T15:47:03;2.00;99.90
9125;DHT22;4597;48.730;9.114;2022-12-10T15:49:30;2.10;99.90
9125;DHT22;4597;48.730;9.114;2022-12-10T15:51:56;2.00;99.90
9125;DHT22;4597;48.730;9.114;2022-12-10T15:56:54;1.90;99.90
9125;DHT22;4597;48.730;9.114;2022-12-10T15:59:19;1.80;99.90
9125;DHT22;4597;48.730;9.114;2022-12-10T16:01:45;1.80;99.90
9125;DHT22;4597;48.730;9.114;2022-12-10T16:04:11;1.70;99.90
9125;DHT22;4597;48.730;9.114;2022-12-10T16:06:37;1.70;99.90
9125;DHT22;4597;48.730;9.114;2022-12-10T16:09:02;1.70;99.90
9125;DHT22;4597;48.730;9.114;2022-12-10T16:11:28;1.70;99.90
9125;DHT22;4597;48.730;9.114;2022-12-10T16:13:55;1.80;99.90
9125;DHT22;4597;48.730;9.114;2022-12-10T16:16:23;1.80;99.90
9125;DHT22;4597;48.730;9.114;2022-12-10T16:18:49;1.80;99.90
9125;DHT22;4597;48.730;9.114;2022-12-10T16:21:15;1.90;99.90
9125;DHT22;4597;48.730;9.114;2022-12-10T16:23:40;1.80;99.90
9125;DHT22;4597;48.730;9.114;2022-12-10T16:26:18;1.90;99.90
9125;DHT22;4597;48.730;9.114;2022-12-10T16:28:45;1.90;99.90
9125;DHT22;4597;48.730;9.114;2022-12-10T16:31:14;1.90;99.90
9125;DHT22;4597;48.730;9.114;2022-12-10T16:33:41;1.80;99.90
9125;DHT22;4597;48.730;9.114;2022-12-10T16:36:07;1.80;99.90
9125;DHT22;4597;48.730;9.114;2022-12-10T16:38:32;1.80;99.90
9125;DHT22;4597;48.730;9.114;2022-12-10T16:40:59;1.80;99.90
9125;DHT22;4597;48.730;9.114;2022-12-10T16:43:26;1.80;99.90
9125;DHT22;4597;48.730;9.114;2022-12-10T16:45:54;1.70;99.90
9125;DHT22;4597;48.730;9.114;2022-12-10T16:48:20;1.70;99.90
9125;DHT22;4597;48.730;9.114;2022-12-10T16:50:47;1.70;99.90
9125;DHT22;4597;48.730;9.114;2022-12-10T16:55:41;1.70;99.90
9125;DHT22;4597;48.730;9.114;2022-12-10T16:58:09;1.80;99.90
9125;DHT22;4597;48.730;9.114;2022-12-10T17:00:35;1.70;99.90
9125;DHT22;4597;48.730;9.114;2022-12-10T17:03:01;1.80;99.90
9125;DHT22;4597;48.730;9.114;2022-12-10T17:05:36;1.90;99.90
9125;DHT22;4597;48.730;9.114;2022-12-10T17:08:04;1.90;99.90
9125;DHT22;4597;48.730;9.114;2022-12-10T17:10:29;1.80;99.90
9125;DHT22;4597;48.730;9.114;2022-12-10T17:13:22;1.70;99.90
9125;DHT22;4597;48.730;9.114;2022-12-10T17:15:48;1.70;99.90
9125;DHT22;4597;48.730;9.114;2022-12-10T17:18:16;1.70;99.90
9125;DHT22;4597;48.730;9.114;2022-12-10T17:20:43;1.60;99.90
9125;DHT22;4597;48.730;9.114;2022-12-10T17:23:09;1.60;99.90
9125;DHT22;4597;48.730;9.114;2022-12-10T17:25:35;1.60;99.90
9125;DHT22;4597;48.730;9.114;2022-12-10T17:28:01;1.80;99.90
9125;DHT22;4597;48.730;9.114;2022-12-10T17:30:27;1.80;99.90
9125;DHT22;4597;48.730;9.114;2022-12-10T17:32:53;1.70;99.90
9125;DHT22;4597;48.730;9.114;2022-12-10T17:35:19;1.70;99.90
9125;DHT22;4597;48.730;9.114;2022-12-10T17:37:45;1.60;99.90
9125;DHT22;4597;48.730;9.114;2022-12-10T17:40:18;1.70;99.90
9125;DHT22;4597;48.730;9.114;2022-12-10T17:42:44;1.70;99.90
9125;DHT22;4597;48.730;9.114;2022-12-10T17:45:15;1.70;99.90
9125;DHT22;4597;48.730;9.114;2022-12-10T17:47:41;1.60;99.90
9125;DHT22;4597;48.730;9.114;2022-12-10T17:52:47;1.90;99.90
9125;DHT22;4597;48.730;9.114;2022-12-10T17:55:13;1.80;99.90
9125;DHT22;4597;48.730;9.114;2022-12-10T17:57:38;1.70;99.90
9125;DHT22;4597;48.730;9.114;2022-12-10T18:00:16;1.70;99.90
9125;DHT22;4597;48.730;9.114;2022-12-10T18:02:42;1.60;99.90
9125;DHT22;4597;48.730;9.114;2022-12-10T18:05:08;1.70;99.90
9125;DHT22;4597;48.730;9.114;2022-12-10T18:07:34;1.60;99.90
9125;DHT22;4597;48.730;9.114;2022-12-10T18:10:00;1.60;99.90
9125;DHT22;4597;48.730;9.114;2022-12-10T18:12:25;1.50;99.90
9125;DHT22;4597;48.730;9.114;2022-12-10T18:14:51;1.50;99.90
9125;DHT22;4597;48.730;9.114;2022-12-10T18:17:16;1.50;99.90
9125;DHT22;4597;48.730;9.114;2022-12-10T18:19:43;1.50;99.90
9125;DHT22;4597;48.730;9.114;2022-12-10T18:22:08;1.60;99.90
9125;DHT22;4597;48.730;9.114;2022-12-10T18:24:34;1.50;99.90
9125;DHT22;4597;48.730;9.114;2022-12-10T18:27:00;1.40;99.90